sensor_id;sensor_type;location;lat;lon;timestamp;pressure;altitude;pressure_sealevel;temperature;humidity
3960;BME280;1994;48.640;8.894;2023-10-08T00:00:48;97043.34;;;15.16;51.04
3960;BME280;1994;48.640;8.894;2023-10-08T00:03:19;97042.59;;;15.16;51.42
3960;BME280;1994;48.640;8.894;2023-10-08T00:05:48;97035.00;;;15.14;51.40
3960;BME280;1994;48.640;8.894;2023-10-08T00:08:17;97039.41;;;15.14;51.18
3960;BME280;1994;48.640;8.894;2023-10-08T00:10:43;97031.66;;;15.19;51.75
3960;BME280;1994;48.640;8.894;2023-10-08T00:13:11;97031.66;;;15.19;51.56
3960;BME280;1994;48.640;8.894;2023-10-08T00:15:44;97022.00;;;15.19;51.25
3960;BME280;1994;48.640;8.894;2023-10-08T00:18:22;97021.84;;;15.26;50.83
3960;BME280;1994;48.640;8.894;2023-10-08T00:20:52;97030.88;;;15.35;50.37
3960;BME280;1994;48.640;8.894;2023-10-08T00:23:24;97018.84;;;15.34;50.27
3960;BME280;1994;48.640;8.894;2023-10-08T00:25:54;97018.50;;;15.30;50.72
3960;BME280;1994;48.640;8.894;2023-10-08T00:28:23;97011.88;;;15.23;50.81
3960;BME280;1994;48.640;8.894;2023-10-08T00:30:50;97021.22;;;15.19;51.26
3960;BME280;1994;48.640;8.894;2023-10-08T00:33:15;97009.19;;;15.18;51.28
3960;BME280;1994;48.640;8.894;2023-10-08T00:35:42;97007.78;;;15.10;51.57
3960;BME280;1994;48.640;8.894;2023-10-08T00:38:09;97003.38;;;15.11;51.73
3960;BME280;1994;48.640;8.894;2023-10-08T00:40:42;96996.88;;;14.97;52.14
3960;BME280;1994;48.640;8.894;2023-10-08T00:43:34;96994.22;;;14.92;52.48
3960;BME280;1994;48.640;8.894;2023-10-08T00:46:04;96986.34;;;14.87;52.24
3960;BME280;1994;48.640;8.894;2023-10-08T00:48:31;96985.84;;;14.90;51.97
3960;BME280;1994;48.640;8.894;2023-10-08T00:51:03;96983.16;;;14.85;51.92
3960;BME280;1994;48.640;8.894;2023-10-08T00:53:54;96981.59;;;14.84;52.28
3960;BME280;1994;48.640;8.894;2023-10-08T00:56:29;96975.75;;;14.77;52.48
3960;BME280;1994;48.640;8.894;2023-10-08T00:59:13;96980.00;;;14.83;52.07
3960;BME280;1994;48.640;8.894;2023-10-08T01:01:46;96971.16;;;14.84;52.15
3960;BME280;1994;48.640;8.894;2023-10-08T01:04:22;96975.25;;;14.80;52.09
3960;BME280;1994;48.640;8.894;2023-10-08T01:06:57;96971.31;;;14.77;52.19
3960;BME280;1994;48.640;8.894;2023-10-08T01:09:49;96979.03;;;14.72;52.47
3960;BME280;1994;48.640;8.894;2023-10-08T01:12:22;96978.28;;;14.72;52.45
3960;BME280;1994;48.640;8.894;2023-10-08T01:15:05;96976.69;;;14.71;52.33
3960;BME280;1994;48.640;8.894;2023-10-08T01:18:04;96974.09;;;14.71;52.15
3960;BME280;1994;48.640;8.894;2023-10-08T01:20:32;96982.06;;;14.64;52.69
3960;BME280;1994;48.640;8.894;2023-10-08T01:23:10;96970.38;;;14.67;52.45
3960;BME280;1994;48.640;8.894;2023-10-08T01:25:40;96970.06;;;14.63;52.70
3960;BME280;1994;48.640;8.894;2023-10-08T01:28:07;96966.19;;;14.66;52.38
3960;BME280;1994;48.640;8.894;2023-10-08T01:30:48;96960.41;;;14.64;52.71
3960;BME280;1994;48.640;8.894;2023-10-08T01:33:18;96959.31;;;14.60;52.35
3960;BME280;1994;48.640;8.894;2023-10-08T01:35:46;96968.31;;;14.69;52.03
3960;BME280;1994;48.640;8.894;2023-10-08T01:38:14;96965.63;;;14.64;52.06
3960;BME280;1994;48.640;8.894;2023-10-08T01:40:42;96962.47;;;14.62;52.05
3960;BME280;1994;48.640;8.894;2023-10-08T01:43:08;96967.69;;;14.62;52.43
3960;BME280;1994;48.640;8.894;2023-10-08T01:45:37;96967.19;;;14.65;51.86
3960;BME280;1994;48.640;8.894;2023-10-08T01:48:07;96958.38;;;14.66;52.15
3960;BME280;1994;48.640;8.894;2023-10-08T01:50:38;96955.28;;;14.69;51.66
3960;BME280;1994;48.640;8.894;2023-10-08T01:53:04;96956.06;;;14.69;51.89
3960;BME280;1994;48.640;8.894;2023-10-08T01:55:35;96953.16;;;14.66;51.83
3960;BME280;1994;48.640;8.894;2023-10-08T01:58:13;96955.19;;;14.64;51.99
3960;BME280;1994;48.640;8.894;2023-10-08T02:00:43;96950.63;;;14.71;51.78
3960;BME280;1994;48.640;8.894;2023-10-08T02:03:12;96953.16;;;14.66;51.97
3960;BME280;1994;48.640;8.894;2023-10-08T02:05:44;96944.44;;;14.60;52.50
3960;BME280;1994;48.640;8.894;2023-10-08T02:08:11;96940.19;;;14.54;52.11
3960;BME280;1994;48.640;8.894;2023-10-08T02:10:42;96939.38;;;14.54;52.46
3960;BME280;1994;48.640;8.894;2023-10-08T02:13:10;96942.56;;;14.56;52.62
3960;BME280;1994;48.640;8.894;2023-10-08T02:15:36;96940.44;;;14.53;52.58
3960;BME280;1994;48.640;8.894;2023-10-08T02:18:06;96940.34;;;14.48;53.13
3960;BME280;1994;48.640;8.894;2023-10-08T02:20:32;96934.59;;;14.46;52.93
3960;BME280;1994;48.640;8.894;2023-10-08T02:22:58;96938.00;;;14.46;53.02
3960;BME280;1994;48.640;8.894;2023-10-08T02:25:25;96939.00;;;14.45;52.95
3960;BME280;1994;48.640;8.894;2023-10-08T02:27:51;96923.69;;;14.49;53.05
3960;BME280;1994;48.640;8.894;2023-10-08T02:30:17;96936.97;;;14.47;53.30
3960;BME280;1994;48.640;8.894;2023-10-08T02:32:44;96938.31;;;14.50;53.18
3960;BME280;1994;48.640;8.894;2023-10-08T02:35:10;96934.66;;;14.51;53.33
3960;BME280;1994;48.640;8.894;2023-10-08T02:37:37;96933.56;;;14.47;53.61
3960;BME280;1994;48.640;8.894;2023-10-08T02:40:09;96940.34;;;14.48;53.55
3960;BME280;1994;48.640;8.894;2023-10-08T02:42:48;96937.19;;;14.46;53.70
3960;BME280;1994;48.640;8.894;2023-10-08T02:45:14;96934.13;;;14.49;53.49
3960;BME280;1994;48.640;8.894;2023-10-08T02:47:42;96941.38;;;14.47;53.54
3960;BME280;1994;48.640;8.894;2023-10-08T02:50:11;96943.53;;;14.50;53.92
3960;BME280;1994;48.640;8.894;2023-10-08T02:52:38;96959.16;;;14.50;53.61
3960;BME280;1994;48.640;8.894;2023-10-08T02:55:04;96955.97;;;14.48;53.46
3960;BME280;1994;48.640;8.894;2023-10-08T02:57:30;96957.59;;;14.49;53.53
3960;BME280;1994;48.640;8.894;2023-10-08T02:59:57;96966.91;;;14.45;53.71
3960;BME280;1994;48.640;8.894;2023-10-08T03:02:23;96958.06;;;14.46;53.80
3960;BME280;1994;48.640;8.894;2023-10-08T03:04:51;96961.69;;;14.45;53.70
3960;BME280;1994;48.640;8.894;2023-10-08T03:07:19;96956.47;;;14.45;53.91
3960;BME280;1994;48.640;8.894;2023-10-08T03:09:48;96957.59;;;14.49;54.08
3960;BME280;1994;48.640;8.894;2023-10-08T03:12:28;96951.25;;;14.45;54.19
3960;BME280;1994;48.640;8.894;2023-10-08T03:15:03;96947.09;;;14.44;54.76
3960;BME280;1994;48.640;8.894;2023-10-08T03:17:38;96951.63;;;14.37;55.06
3960;BME280;1994;48.640;8.894;2023-10-08T03:20:08;96955.75;;;14.33;55.58
3960;BME280;1994;48.640;8.894;2023-10-08T03:22:52;96952.34;;;14.32;55.88
3960;BME280;1994;48.640;8.894;2023-10-08T03:25:18;96951.47;;;14.27;56.24
3960;BME280;1994;48.640;8.894;2023-10-08T03:27:44;96949.66;;;14.27;56.16
3960;BME280;1994;48.640;8.894;2023-10-08T03:30:10;96947.28;;;14.26;56.14
3960;BME280;1994;48.640;8.894;2023-10-08T03:32:41;96950.63;;;14.21;55.97
3960;BME280;1994;48.640;8.894;2023-10-08T03:35:09;96952.78;;;14.13;56.27
3960;BME280;1994;48.640;8.894;2023-10-08T03:37:40;96949.06;;;14.09;56.78
3960;BME280;1994;48.640;8.894;2023-10-08T03:40:08;96952.59;;;14.03;57.23
3960;BME280;1994;48.640;8.894;2023-10-08T03:42:51;96956.25;;;14.02;57.78
3960;BME280;1994;48.640;8.894;2023-10-08T03:45:17;96949.38;;;13.96;57.94
3960;BME280;1994;48.640;8.894;2023-10-08T03:48:03;96949.72;;;13.88;58.22
3960;BME280;1994;48.640;8.894;2023-10-08T03:50:41;96953.44;;;13.75;59.04
3960;BME280;1994;48.640;8.894;2023-10-08T03:53:11;96945.63;;;13.75;58.92
3960;BME280;1994;48.640;8.894;2023-10-08T03:55:40;96953.66;;;13.74;58.86
3960;BME280;1994;48.640;8.894;2023-10-08T03:58:09;96952.84;;;13.73;58.44
3960;BME280;1994;48.640;8.894;2023-10-08T04:00:54;96952.84;;;13.73;58.35
3960;BME280;1994;48.640;8.894;2023-10-08T04:03:34;96949.47;;;13.73;58.56
3960;BME280;1994;48.640;8.894;2023-10-08T04:06:23;96947.41;;;13.75;58.34
3960;BME280;1994;48.640;8.894;2023-10-08T04:08:59;96946.28;;;13.71;58.31
3960;BME280;1994;48.640;8.894;2023-10-08T04:11:42;96956.72;;;13.71;58.08
3960;BME280;1994;48.640;8.894;2023-10-08T04:14:21;96962.94;;;13.70;58.08
3960;BME280;1994;48.640;8.894;2023-10-08T04:16:48;96963.50;;;13.72;57.93
3960;BME280;1994;48.640;8.894;2023-10-08T04:19:20;96963.41;;;13.67;59.00
3960;BME280;1994;48.640;8.894;2023-10-08T04:21:47;96965.94;;;13.62;59.72
3960;BME280;1994;48.640;8.894;2023-10-08T04:24:24;96975.66;;;13.55;60.45
3960;BME280;1994;48.640;8.894;2023-10-08T04:26:58;96969.94;;;13.41;61.36
3960;BME280;1994;48.640;8.894;2023-10-08T04:29:25;96969.59;;;13.38;61.79
3960;BME280;1994;48.640;8.894;2023-10-08T04:31:51;96965.53;;;13.30;62.37
3960;BME280;1994;48.640;8.894;2023-10-08T04:34:29;96964.97;;;13.28;62.76
3960;BME280;1994;48.640;8.894;2023-10-08T04:36:55;96963.16;;;13.29;63.67
3960;BME280;1994;48.640;8.894;2023-10-08T04:39:30;96965.31;;;13.32;64.42
3960;BME280;1994;48.640;8.894;2023-10-08T04:42:02;96968.34;;;13.40;64.08
3960;BME280;1994;48.640;8.894;2023-10-08T04:44:35;96975.59;;;13.38;63.11
3960;BME280;1994;48.640;8.894;2023-10-08T04:47:05;96966.78;;;13.39;62.54
3960;BME280;1994;48.640;8.894;2023-10-08T04:49:32;96958.41;;;13.37;62.50
3960;BME280;1994;48.640;8.894;2023-10-08T04:52:05;96963.38;;;13.39;62.50
3960;BME280;1994;48.640;8.894;2023-10-08T04:54:41;96952.84;;;13.34;62.37
3960;BME280;1994;48.640;8.894;2023-10-08T04:57:12;96946.06;;;13.33;62.85
3960;BME280;1994;48.640;8.894;2023-10-08T04:59:44;96953.44;;;13.36;62.76
3960;BME280;1994;48.640;8.894;2023-10-08T05:02:12;96954.47;;;13.35;62.71
3960;BME280;1994;48.640;8.894;2023-10-08T05:04:39;96958.06;;;13.34;62.16
3960;BME280;1994;48.640;8.894;2023-10-08T05:07:23;96962.38;;;13.40;61.86
3960;BME280;1994;48.640;8.894;2023-10-08T05:09:51;96969.00;;;13.47;61.35
3960;BME280;1994;48.640;8.894;2023-10-08T05:12:19;96973.53;;;13.52;60.50
3960;BME280;1994;48.640;8.894;2023-10-08T05:15:06;96970.00;;;13.58;60.57
3960;BME280;1994;48.640;8.894;2023-10-08T05:17:42;96975.22;;;13.58;60.76
3960;BME280;1994;48.640;8.894;2023-10-08T05:20:22;96977.16;;;13.51;61.65
3960;BME280;1994;48.640;8.894;2023-10-08T05:23:24;96973.34;;;13.30;62.89
3960;BME280;1994;48.640;8.894;2023-10-08T05:25:52;96975.06;;;13.25;62.77
3960;BME280;1994;48.640;8.894;2023-10-08T05:28:37;96980.81;;;13.27;62.93
3960;BME280;1994;48.640;8.894;2023-10-08T05:31:24;96974.16;;;13.31;62.32
3960;BME280;1994;48.640;8.894;2023-10-08T05:34:11;96974.34;;;13.41;62.32
3960;BME280;1994;48.640;8.894;2023-10-08T05:36:41;96973.66;;;13.45;60.90
3960;BME280;1994;48.640;8.894;2023-10-08T05:39:25;96975.81;;;13.48;60.85
3960;BME280;1994;48.640;8.894;2023-10-08T05:41:53;96979.75;;;13.51;60.19
3960;BME280;1994;48.640;8.894;2023-10-08T05:44:44;96986.16;;;13.60;60.61
3960;BME280;1994;48.640;8.894;2023-10-08T05:47:33;96984.69;;;13.64;59.88
3960;BME280;1994;48.640;8.894;2023-10-08T05:50:00;96987.84;;;13.66;58.98
3960;BME280;1994;48.640;8.894;2023-10-08T05:52:46;96990.88;;;13.74;59.38
3960;BME280;1994;48.640;8.894;2023-10-08T05:55:33;96996.41;;;13.78;58.71
3960;BME280;1994;48.640;8.894;2023-10-08T05:58:13;96992.81;;;13.79;58.38
3960;BME280;1994;48.640;8.894;2023-10-08T06:00:47;97004.00;;;13.79;60.30
3960;BME280;1994;48.640;8.894;2023-10-08T06:03:19;97002.19;;;13.80;59.33
3960;BME280;1994;48.640;8.894;2023-10-08T06:06:00;96997.53;;;13.82;58.20
3960;BME280;1994;48.640;8.894;2023-10-08T06:08:48;96999.25;;;13.76;59.34
3960;BME280;1994;48.640;8.894;2023-10-08T06:11:24;97003.53;;;13.82;59.19
3960;BME280;1994;48.640;8.894;2023-10-08T06:14:08;97010.75;;;13.92;60.21
3960;BME280;1994;48.640;8.894;2023-10-08T06:16:45;97015.72;;;13.93;61.27
3960;BME280;1994;48.640;8.894;2023-10-08T06:19:13;97014.47;;;13.96;60.52
3960;BME280;1994;48.640;8.894;2023-10-08T06:21:41;97012.09;;;13.94;60.40
3960;BME280;1994;48.640;8.894;2023-10-08T06:24:09;97017.94;;;14.01;59.53
3960;BME280;1994;48.640;8.894;2023-10-08T06:26:39;97016.88;;;14.14;59.02
3960;BME280;1994;48.640;8.894;2023-10-08T06:29:12;97011.56;;;14.20;58.20
3960;BME280;1994;48.640;8.894;2023-10-08T06:32:04;97015.03;;;14.26;58.42
3960;BME280;1994;48.640;8.894;2023-10-08T06:34:30;97009.25;;;14.35;58.18
3960;BME280;1994;48.640;8.894;2023-10-08T06:36:59;97009.72;;;14.49;57.58
3960;BME280;1994;48.640;8.894;2023-10-08T06:39:26;97014.47;;;14.68;57.33
3960;BME280;1994;48.640;8.894;2023-10-08T06:41:59;97022.84;;;14.87;57.23
3960;BME280;1994;48.640;8.894;2023-10-08T06:44:25;97027.66;;;14.95;56.83
3960;BME280;1994;48.640;8.894;2023-10-08T06:46:53;97026.47;;;15.02;56.44
3960;BME280;1994;48.640;8.894;2023-10-08T06:49:21;97027.72;;;15.00;56.72
3960;BME280;1994;48.640;8.894;2023-10-08T06:51:50;97021.25;;;15.02;56.47
3960;BME280;1994;48.640;8.894;2023-10-08T06:54:17;97021.09;;;15.09;56.23
3960;BME280;1994;48.640;8.894;2023-10-08T06:56:44;97017.75;;;15.13;56.57
3960;BME280;1994;48.640;8.894;2023-10-08T06:59:18;97013.88;;;15.16;56.58
3960;BME280;1994;48.640;8.894;2023-10-08T07:01:44;97014.97;;;15.20;56.28
3960;BME280;1994;48.640;8.894;2023-10-08T07:04:17;97011.88;;;15.23;56.45
3960;BME280;1994;48.640;8.894;2023-10-08T07:06:45;97013.06;;;15.32;55.86
3960;BME280;1994;48.640;8.894;2023-10-08T07:09:14;97024.69;;;15.41;56.37
3960;BME280;1994;48.640;8.894;2023-10-08T07:11:58;97020.84;;;15.48;55.62
3960;BME280;1994;48.640;8.894;2023-10-08T07:14:30;97029.56;;;15.54;55.54
3960;BME280;1994;48.640;8.894;2023-10-08T07:16:58;97028.09;;;15.63;55.26
3960;BME280;1994;48.640;8.894;2023-10-08T07:19:29;97024.09;;;15.77;55.34
3960;BME280;1994;48.640;8.894;2023-10-08T07:22:05;97020.75;;;15.81;55.33
3960;BME280;1994;48.640;8.894;2023-10-08T07:24:43;97022.38;;;16.09;55.12
3960;BME280;1994;48.640;8.894;2023-10-08T07:27:20;97018.81;;;16.20;54.69
3960;BME280;1994;48.640;8.894;2023-10-08T07:29:55;97009.47;;;16.24;54.11
3960;BME280;1994;48.640;8.894;2023-10-08T07:32:21;97012.53;;;16.42;54.40
3960;BME280;1994;48.640;8.894;2023-10-08T07:34:47;97008.09;;;16.43;53.41
3960;BME280;1994;48.640;8.894;2023-10-08T07:37:13;97008.38;;;16.46;53.67
3960;BME280;1994;48.640;8.894;2023-10-08T07:39:41;97008.84;;;16.70;53.32
3960;BME280;1994;48.640;8.894;2023-10-08T07:42:12;97021.56;;;16.93;52.59
3960;BME280;1994;48.640;8.894;2023-10-08T07:44:39;97023.38;;;17.29;51.98
3960;BME280;1994;48.640;8.894;2023-10-08T07:47:06;97034.63;;;17.66;51.84
3960;BME280;1994;48.640;8.894;2023-10-08T07:49:37;97038.91;;;17.87;52.04
3960;BME280;1994;48.640;8.894;2023-10-08T07:52:03;97048.66;;;18.01;51.35
3960;BME280;1994;48.640;8.894;2023-10-08T07:54:32;97044.16;;;17.87;50.67
3960;BME280;1994;48.640;8.894;2023-10-08T07:57:01;97045.69;;;17.83;51.84
3960;BME280;1994;48.640;8.894;2023-10-08T07:59:38;97057.63;;;17.54;52.64
3960;BME280;1994;48.640;8.894;2023-10-08T08:02:08;97052.72;;;17.31;53.12
3960;BME280;1994;48.640;8.894;2023-10-08T08:04:42;97049.50;;;17.19;54.54
3960;BME280;1994;48.640;8.894;2023-10-08T08:07:12;97042.69;;;17.18;55.18
3960;BME280;1994;48.640;8.894;2023-10-08T08:09:46;97040.88;;;17.23;55.34
3960;BME280;1994;48.640;8.894;2023-10-08T08:12:24;97032.28;;;17.28;55.61
3960;BME280;1994;48.640;8.894;2023-10-08T08:14:52;97039.19;;;17.39;55.47
3960;BME280;1994;48.640;8.894;2023-10-08T08:17:18;97037.66;;;17.48;55.75
3960;BME280;1994;48.640;8.894;2023-10-08T08:19:47;97043.63;;;17.95;54.87
3960;BME280;1994;48.640;8.894;2023-10-08T08:22:14;97041.69;;;18.37;53.79
3960;BME280;1994;48.640;8.894;2023-10-08T08:24:54;97038.06;;;18.58;53.14
3960;BME280;1994;48.640;8.894;2023-10-08T08:27:32;97041.47;;;19.23;51.42
3960;BME280;1994;48.640;8.894;2023-10-08T08:29:58;97040.84;;;20.30;49.84
3960;BME280;1994;48.640;8.894;2023-10-08T08:32:39;97037.91;;;21.08;47.55
3960;BME280;1994;48.640;8.894;2023-10-08T08:35:10;97045.53;;;21.90;46.09
3960;BME280;1994;48.640;8.894;2023-10-08T08:37:37;97043.50;;;22.06;45.53
3960;BME280;1994;48.640;8.894;2023-10-08T08:40:07;97042.53;;;22.39;44.45
3960;BME280;1994;48.640;8.894;2023-10-08T08:42:50;97053.72;;;22.86;42.66
3960;BME280;1994;48.640;8.894;2023-10-08T08:45:23;97052.31;;;23.26;42.25
3960;BME280;1994;48.640;8.894;2023-10-08T08:47:53;97053.50;;;23.74;42.31
3960;BME280;1994;48.640;8.894;2023-10-08T08:50:19;97079.19;;;24.41;39.50
3960;BME280;1994;48.640;8.894;2023-10-08T08:52:48;97073.06;;;24.54;39.69
3960;BME280;1994;48.640;8.894;2023-10-08T08:55:15;97084.53;;;24.14;40.82
3960;BME280;1994;48.640;8.894;2023-10-08T08:57:43;97092.59;;;25.15;39.25
3960;BME280;1994;48.640;8.894;2023-10-08T09:00:12;97086.84;;;25.00;38.15
3960;BME280;1994;48.640;8.894;2023-10-08T09:02:40;97087.66;;;24.16;39.49
3960;BME280;1994;48.640;8.894;2023-10-08T09:05:06;97077.66;;;24.13;40.20
3960;BME280;1994;48.640;8.894;2023-10-08T09:08:05;97080.75;;;25.74;38.69
3960;BME280;1994;48.640;8.894;2023-10-08T09:10:37;97090.53;;;26.51;36.90
3960;BME280;1994;48.640;8.894;2023-10-08T09:13:07;97089.19;;;26.88;36.98
3960;BME280;1994;48.640;8.894;2023-10-08T09:15:35;97092.59;;;27.31;35.93
3960;BME280;1994;48.640;8.894;2023-10-08T09:18:02;97087.81;;;27.79;34.51
3960;BME280;1994;48.640;8.894;2023-10-08T09:20:30;97099.97;;;28.55;34.06
3960;BME280;1994;48.640;8.894;2023-10-08T09:23:11;97089.53;;;29.03;33.16
3960;BME280;1994;48.640;8.894;2023-10-08T09:25:45;97097.81;;;28.48;33.79
3960;BME280;1994;48.640;8.894;2023-10-08T09:28:17;97093.16;;;29.19;33.54
3960;BME280;1994;48.640;8.894;2023-10-08T09:30:43;97099.16;;;28.75;33.70
3960;BME280;1994;48.640;8.894;2023-10-08T09:33:14;97097.56;;;29.68;32.16
3960;BME280;1994;48.640;8.894;2023-10-08T09:35:43;97087.16;;;30.35;31.44
3960;BME280;1994;48.640;8.894;2023-10-08T09:38:11;97090.50;;;30.20;32.38
3960;BME280;1994;48.640;8.894;2023-10-08T09:40:42;97095.06;;;30.95;31.30
3960;BME280;1994;48.640;8.894;2023-10-08T09:43:10;97091.81;;;30.89;30.45
3960;BME280;1994;48.640;8.894;2023-10-08T09:45:38;97090.69;;;30.39;31.55
3960;BME280;1994;48.640;8.894;2023-10-08T09:48:11;97089.34;;;30.09;31.48
3960;BME280;1994;48.640;8.894;2023-10-08T09:50:41;97086.28;;;30.19;32.09
3960;BME280;1994;48.640;8.894;2023-10-08T09:53:11;97088.66;;;28.99;33.31
3960;BME280;1994;48.640;8.894;2023-10-08T09:55:55;97086.72;;;28.09;34.65
3960;BME280;1994;48.640;8.894;2023-10-08T09:58:26;97090.72;;;27.06;36.83
3960;BME280;1994;48.640;8.894;2023-10-08T10:00:56;97100.13;;;26.61;37.18
3960;BME280;1994;48.640;8.894;2023-10-08T10:03:25;97097.38;;;25.88;38.75
3960;BME280;1994;48.640;8.894;2023-10-08T10:05:52;97094.88;;;25.83;40.13
3960;BME280;1994;48.640;8.894;2023-10-08T10:08:18;97097.41;;;26.44;38.93
3960;BME280;1994;48.640;8.894;2023-10-08T10:10:58;97096.63;;;26.52;38.57
3960;BME280;1994;48.640;8.894;2023-10-08T10:13:28;97099.81;;;26.71;38.81
3960;BME280;1994;48.640;8.894;2023-10-08T10:15:58;97097.16;;;27.22;37.67
3960;BME280;1994;48.640;8.894;2023-10-08T10:21:31;97094.81;;;27.29;36.46
3960;BME280;1994;48.640;8.894;2023-10-08T10:23:58;97089.06;;;27.56;36.53
3960;BME280;1994;48.640;8.894;2023-10-08T10:26:35;97085.41;;;26.72;38.39
3960;BME280;1994;48.640;8.894;2023-10-08T10:31:44;97088.56;;;26.09;39.16
3960;BME280;1994;48.640;8.894;2023-10-08T10:34:14;97089.81;;;25.73;39.70
3960;BME280;1994;48.640;8.894;2023-10-08T10:36:44;97088.00;;;26.21;38.93
3960;BME280;1994;48.640;8.894;2023-10-08T10:39:13;97083.38;;;27.83;36.53
3960;BME280;1994;48.640;8.894;2023-10-08T10:41:48;97094.75;;;28.79;34.37
3960;BME280;1994;48.640;8.894;2023-10-08T10:44:15;97092.78;;;29.41;32.44
3960;BME280;1994;48.640;8.894;2023-10-08T10:46:46;97085.16;;;30.20;31.83
3960;BME280;1994;48.640;8.894;2023-10-08T10:49:38;97080.22;;;29.74;31.55
3960;BME280;1994;48.640;8.894;2023-10-08T10:52:14;97073.56;;;30.16;30.73
3960;BME280;1994;48.640;8.894;2023-10-08T10:54:52;97078.41;;;30.74;30.03
3960;BME280;1994;48.640;8.894;2023-10-08T10:57:26;97074.78;;;30.30;30.89
3960;BME280;1994;48.640;8.894;2023-10-08T11:00:04;97074.66;;;30.03;31.49
3960;BME280;1994;48.640;8.894;2023-10-08T11:03:05;97075.72;;;29.54;31.70
3960;BME280;1994;48.640;8.894;2023-10-08T11:05:43;97067.25;;;29.07;33.67
3960;BME280;1994;48.640;8.894;2023-10-08T11:08:15;97067.63;;;28.77;33.16
3960;BME280;1994;48.640;8.894;2023-10-08T11:10:44;97064.88;;;28.65;33.54
3960;BME280;1994;48.640;8.894;2023-10-08T11:13:20;97070.13;;;28.32;34.22
3960;BME280;1994;48.640;8.894;2023-10-08T11:15:50;97069.72;;;27.93;34.77
3960;BME280;1994;48.640;8.894;2023-10-08T11:18:19;97071.66;;;28.13;35.06
3960;BME280;1994;48.640;8.894;2023-10-08T11:20:48;97065.94;;;28.23;34.29
3960;BME280;1994;48.640;8.894;2023-10-08T11:23:43;97065.50;;;29.56;32.80
3960;BME280;1994;48.640;8.894;2023-10-08T11:26:09;97070.66;;;29.97;31.52
3960;BME280;1994;48.640;8.894;2023-10-08T11:28:39;97066.38;;;28.95;33.69
3960;BME280;1994;48.640;8.894;2023-10-08T11:31:10;97070.25;;;28.36;34.80
3960;BME280;1994;48.640;8.894;2023-10-08T11:33:44;97070.50;;;28.22;35.33
3960;BME280;1994;48.640;8.894;2023-10-08T11:36:21;97071.59;;;28.50;34.84
3960;BME280;1994;48.640;8.894;2023-10-08T11:39:11;97065.38;;;28.46;34.34
3960;BME280;1994;48.640;8.894;2023-10-08T11:42:01;97057.66;;;28.86;34.48
3960;BME280;1994;48.640;8.894;2023-10-08T11:44:50;97060.94;;;28.50;34.15
3960;BME280;1994;48.640;8.894;2023-10-08T11:47:18;97060.28;;;28.74;32.79
3960;BME280;1994;48.640;8.894;2023-10-08T11:49:47;97055.09;;;28.57;33.52
3960;BME280;1994;48.640;8.894;2023-10-08T11:52:16;97055.63;;;27.92;34.57
3960;BME280;1994;48.640;8.894;2023-10-08T11:54:43;97047.34;;;27.77;35.32
3960;BME280;1994;48.640;8.894;2023-10-08T11:57:10;97052.81;;;28.18;34.97
3960;BME280;1994;48.640;8.894;2023-10-08T11:59:37;97055.22;;;28.40;34.69
3960;BME280;1994;48.640;8.894;2023-10-08T12:02:06;97051.69;;;28.48;34.38
3960;BME280;1994;48.640;8.894;2023-10-08T12:04:32;97048.25;;;28.68;33.84
3960;BME280;1994;48.640;8.894;2023-10-08T12:06:58;97049.75;;;28.98;34.10
3960;BME280;1994;48.640;8.894;2023-10-08T12:09:28;97048.16;;;29.17;33.30
3960;BME280;1994;48.640;8.894;2023-10-08T12:11:54;97045.81;;;28.95;33.14
3960;BME280;1994;48.640;8.894;2023-10-08T12:14:21;97041.13;;;28.31;34.02
3960;BME280;1994;48.640;8.894;2023-10-08T12:16:52;97034.91;;;28.27;33.80
3960;BME280;1994;48.640;8.894;2023-10-08T12:19:18;97033.44;;;28.09;34.70
3960;BME280;1994;48.640;8.894;2023-10-08T12:21:45;97035.16;;;28.05;34.79
3960;BME280;1994;48.640;8.894;2023-10-08T12:24:12;97041.50;;;28.21;35.23
3960;BME280;1994;48.640;8.894;2023-10-08T12:26:42;97025.50;;;28.00;34.11
3960;BME280;1994;48.640;8.894;2023-10-08T12:29:12;97025.50;;;28.00;35.04
3960;BME280;1994;48.640;8.894;2023-10-08T12:31:40;97025.81;;;28.28;34.17
3960;BME280;1994;48.640;8.894;2023-10-08T12:34:06;97028.53;;;28.19;33.77
3960;BME280;1994;48.640;8.894;2023-10-08T12:36:32;97023.09;;;28.57;34.24
3960;BME280;1994;48.640;8.894;2023-10-08T12:39:02;97027.38;;;28.70;32.67
3960;BME280;1994;48.640;8.894;2023-10-08T12:41:43;97025.75;;;28.98;32.40
3960;BME280;1994;48.640;8.894;2023-10-08T12:44:12;97025.22;;;29.16;32.93
3960;BME280;1994;48.640;8.894;2023-10-08T12:46:41;97019.97;;;29.08;32.79
3960;BME280;1994;48.640;8.894;2023-10-08T12:49:09;97024.09;;;28.85;32.81
3960;BME280;1994;48.640;8.894;2023-10-08T12:51:35;97017.31;;;29.08;32.75
3960;BME280;1994;48.640;8.894;2023-10-08T12:54:06;97019.78;;;29.13;32.55
3960;BME280;1994;48.640;8.894;2023-10-08T12:56:34;97020.88;;;29.56;31.64
3960;BME280;1994;48.640;8.894;2023-10-08T12:59:15;97019.66;;;29.54;32.27
3960;BME280;1994;48.640;8.894;2023-10-08T13:01:47;97019.53;;;29.50;31.61
3960;BME280;1994;48.640;8.894;2023-10-08T13:04:19;97013.59;;;29.33;31.53
3960;BME280;1994;48.640;8.894;2023-10-08T13:07:00;97007.72;;;29.39;31.31
3960;BME280;1994;48.640;8.894;2023-10-08T13:09:29;97003.97;;;29.64;30.83
3960;BME280;1994;48.640;8.894;2023-10-08T13:11:56;97006.72;;;29.44;31.17
3960;BME280;1994;48.640;8.894;2023-10-08T13:14:25;97000.03;;;29.38;30.80
3960;BME280;1994;48.640;8.894;2023-10-08T13:16:51;96994.63;;;29.14;30.57
3960;BME280;1994;48.640;8.894;2023-10-08T13:19:22;97001.09;;;29.13;30.76
3960;BME280;1994;48.640;8.894;2023-10-08T13:21:51;96994.63;;;29.02;29.98
3960;BME280;1994;48.640;8.894;2023-10-08T13:24:20;96995.66;;;28.89;31.66
3960;BME280;1994;48.640;8.894;2023-10-08T13:26:46;96986.53;;;28.78;31.51
3960;BME280;1994;48.640;8.894;2023-10-08T13:29:14;96992.13;;;28.64;32.36
3960;BME280;1994;48.640;8.894;2023-10-08T13:31:39;96987.47;;;28.41;31.39
3960;BME280;1994;48.640;8.894;2023-10-08T13:34:05;96979.63;;;28.36;30.27
3960;BME280;1994;48.640;8.894;2023-10-08T13:36:35;96983.97;;;28.49;30.30
3960;BME280;1994;48.640;8.894;2023-10-08T13:39:06;96975.84;;;28.37;30.30
3960;BME280;1994;48.640;8.894;2023-10-08T13:41:36;96970.72;;;28.32;31.37
3960;BME280;1994;48.640;8.894;2023-10-08T13:44:04;96966.63;;;28.14;31.18
3960;BME280;1994;48.640;8.894;2023-10-08T13:46:31;96967.16;;;28.07;31.90
3960;BME280;1994;48.640;8.894;2023-10-08T13:49:01;96970.41;;;28.13;30.70
3960;BME280;1994;48.640;8.894;2023-10-08T13:51:27;96980.81;;;28.06;30.94
3960;BME280;1994;48.640;8.894;2023-10-08T13:53:56;96973.00;;;28.01;31.38